createdAt,value
2023-05-24T00:01:38.910Z,13.12
2023-05-24T00:04:12.022Z,13.06
2023-05-24T00:06:43.628Z,13.16
2023-05-24T00:09:13.713Z,13.12
2023-05-24T00:11:48.013Z,13.10
2023-05-24T00:14:22.304Z,13.17
2023-05-24T00:16:52.463Z,13.20
2023-05-24T00:19:23.216Z,13.14
2023-05-24T00:21:53.760Z,13.13
2023-05-24T00:24:22.675Z,13.20
2023-05-24T00:27:04.997Z,13.21
2023-05-24T00:29:38.043Z,13.07
2023-05-24T00:32:08.781Z,13.24
2023-05-24T00:35:01.564Z,13.23
2023-05-24T00:37:30.723Z,13.23
2023-05-24T00:40:02.517Z,13.34
2023-05-24T00:42:34.397Z,13.28
2023-05-24T00:45:03.058Z,13.23
2023-05-24T00:47:32.022Z,13.27
2023-05-24T00:50:06.489Z,13.04
2023-05-24T00:52:36.297Z,13.20
2023-05-24T00:55:06.774Z,13.27
2023-05-24T00:57:40.030Z,13.20
2023-05-24T01:00:14.530Z,13.21
2023-05-24T01:02:53.551Z,13.16
2023-05-24T01:05:25.600Z,13.13
2023-05-24T01:08:12.474Z,13.21
2023-05-24T01:10:53.424Z,12.94
2023-05-24T01:13:36.241Z,13.12
2023-05-24T01:16:13.074Z,13.02
2023-05-24T01:18:48.351Z,12.94
2023-05-24T01:21:49.702Z,13.20
2023-05-24T01:24:32.227Z,13.18
2023-05-24T01:27:12.287Z,13.22
2023-05-24T01:29:42.866Z,13.32
2023-05-24T01:32:12.300Z,13.18
2023-05-24T01:34:41.115Z,13.11
2023-05-24T01:37:10.324Z,13.32
2023-05-24T01:39:39.891Z,13.33
2023-05-24T01:42:26.201Z,13.10
2023-05-24T01:48:08.450Z,13.06
2023-05-24T01:50:45.629Z,12.94
2023-05-24T01:53:19.506Z,12.94
2023-05-24T01:55:53.602Z,12.98
2023-05-24T01:58:31.353Z,13.14
2023-05-24T02:01:03.517Z,13.25
2023-05-24T02:03:38.205Z,13.16
2023-05-24T02:06:11.053Z,13.32
2023-05-24T02:08:56.362Z,13.38
2023-05-24T02:11:24.950Z,13.32
2023-05-24T02:13:55.450Z,13.27
2023-05-24T02:16:27.692Z,13.23
2023-05-24T02:18:58.227Z,13.34
2023-05-24T02:21:28.304Z,13.29
2023-05-24T02:23:58.341Z,13.28
2023-05-24T02:26:28.562Z,13.24
2023-05-24T02:28:58.837Z,13.41
2023-05-24T02:31:28.948Z,13.05
2023-05-24T02:33:58.469Z,13.33
2023-05-24T02:36:28.891Z,13.39
2023-05-24T02:38:58.838Z,13.39
2023-05-24T02:41:28.268Z,13.18
2023-05-24T02:43:58.080Z,13.30
2023-05-24T02:46:26.855Z,13.26
2023-05-24T02:48:56.072Z,13.45
2023-05-24T02:51:26.459Z,13.52
2023-05-24T02:53:55.674Z,13.46
2023-05-24T02:56:28.063Z,13.63
2023-05-24T02:59:00.242Z,13.45
2023-05-24T03:01:30.108Z,13.59
2023-05-24T03:03:59.786Z,13.63
2023-05-24T03:06:31.723Z,13.70
2023-05-24T03:09:00.504Z,13.35
2023-05-24T03:11:29.997Z,13.40
2023-05-24T03:14:00.853Z,13.30
2023-05-24T03:16:29.571Z,13.44
2023-05-24T03:19:00.051Z,13.32
2023-05-24T03:21:29.814Z,13.27
2023-05-24T03:23:58.953Z,13.36
2023-05-24T03:26:28.662Z,13.37
2023-05-24T03:29:01.008Z,13.35
2023-05-24T03:31:30.857Z,13.48
2023-05-24T03:33:59.547Z,13.63
2023-05-24T03:36:29.899Z,13.55
2023-05-24T03:39:04.868Z,13.53
2023-05-24T03:41:33.892Z,13.39
2023-05-24T03:44:05.988Z,13.39
2023-05-24T03:46:36.919Z,13.22
2023-05-24T03:49:06.406Z,13.67
2023-05-24T03:51:35.108Z,13.35
2023-05-24T03:54:04.698Z,13.71
2023-05-24T03:56:33.553Z,13.67
2023-05-24T03:59:04.419Z,13.55
2023-05-24T04:01:36.848Z,13.48
2023-05-24T04:04:06.798Z,13.77
2023-05-24T04:06:38.261Z,13.86
2023-05-24T04:09:15.257Z,13.61
2023-05-24T04:11:43.928Z,13.77
2023-05-24T04:14:17.217Z,13.90
2023-05-24T04:16:50.774Z,13.87
2023-05-24T04:22:02.642Z,14.11
2023-05-24T04:24:31.240Z,13.83
2023-05-24T04:27:01.617Z,14.01
2023-05-24T04:29:33.407Z,13.95
2023-05-24T04:34:47.670Z,13.81
2023-05-24T04:37:17.372Z,13.97
2023-05-24T04:39:47.268Z,13.90
2023-05-24T04:42:18.518Z,13.90
2023-05-24T04:44:47.286Z,13.92
2023-05-24T04:47:19.781Z,13.68
2023-05-24T04:49:48.673Z,13.93
2023-05-24T04:55:06.748Z,14.24
2023-05-24T04:57:35.540Z,13.74
2023-05-24T05:00:09.509Z,14.05
2023-05-24T05:02:43.386Z,14.15
2023-05-24T05:05:13.270Z,14.23
2023-05-24T05:07:42.243Z,14.38
2023-05-24T05:10:15.856Z,14.29
2023-05-24T05:12:52.130Z,14.46
2023-05-24T05:15:24.495Z,14.23
2023-05-24T05:17:59.426Z,14.56
2023-05-24T05:20:29.318Z,14.55
2023-05-24T05:23:03.336Z,14.55
2023-05-24T05:25:32.386Z,14.40
2023-05-24T05:28:01.109Z,14.28
2023-05-24T05:30:36.040Z,14.39
2023-05-24T05:33:12.392Z,14.71
2023-05-24T05:35:42.390Z,14.94
2023-05-24T05:38:17.367Z,14.79
2023-05-24T05:40:48.596Z,15.13
2023-05-24T05:43:22.032Z,15.27
2023-05-24T05:45:50.524Z,14.65
2023-05-24T05:48:34.923Z,15.28
2023-05-24T05:51:04.240Z,15.49
2023-05-24T05:53:36.261Z,15.76
2023-05-24T05:56:07.239Z,15.72
2023-05-24T05:58:39.094Z,15.90
2023-05-24T06:01:08.928Z,15.64
2023-05-24T06:03:42.777Z,15.81
2023-05-24T06:09:11.803Z,16.12
2023-05-24T06:11:45.216Z,16.36
2023-05-24T06:17:11.530Z,15.96
2023-05-24T06:19:41.964Z,16.09
2023-05-24T06:22:11.484Z,15.85
2023-05-24T06:24:49.559Z,16.05
2023-05-24T06:30:31.470Z,16.16
2023-05-24T06:33:03.578Z,16.20
2023-05-24T06:35:41.244Z,16.05
2023-05-24T06:41:03.931Z,16.17
2023-05-24T06:43:41.336Z,16.94
2023-05-24T06:49:09.778Z,16.85
2023-05-24T06:55:27.059Z,17.12
2023-05-24T07:01:06.151Z,17.85
2023-05-24T07:06:33.935Z,17.90
2023-05-24T07:09:25.066Z,17.89
2023-05-24T07:11:54.374Z,18.29
2023-05-24T07:14:26.247Z,18.37
2023-05-24T07:17:09.022Z,18.39
2023-05-24T07:22:27.017Z,17.96
2023-05-24T07:26:01.566Z,18.65
2023-05-24T07:32:30.757Z,18.54
2023-05-24T07:38:04.722Z,18.91
2023-05-24T07:49:38.359Z,19.61
2023-05-24T07:58:18.473Z,19.16
2023-05-24T08:00:50.922Z,19.40
2023-05-24T08:03:21.380Z,19.16
2023-05-24T08:05:53.500Z,19.81
2023-05-24T08:14:03.718Z,20.44
2023-05-24T08:16:38.158Z,20.65
2023-05-24T08:19:08.554Z,20.67
2023-05-24T08:21:42.251Z,20.88
2023-05-24T08:24:11.435Z,21.08
2023-05-24T08:26:40.541Z,20.99
2023-05-24T08:29:09.391Z,20.86
2023-05-24T08:31:38.781Z,20.27
2023-05-24T08:34:08.714Z,21.09
2023-05-24T08:36:44.260Z,20.95
2023-05-24T08:39:13.909Z,20.76
2023-05-24T08:41:43.628Z,20.32
2023-05-24T08:44:17.677Z,20.45
2023-05-24T08:47:01.048Z,21.12
2023-05-24T08:49:52.033Z,21.55
2023-05-24T08:52:24.757Z,21.38
2023-05-24T08:57:41.755Z,22.19
2023-05-24T09:09:06.532Z,21.54
2023-05-24T09:11:50.964Z,21.31
2023-05-24T09:14:20.799Z,21.48
2023-05-24T09:16:51.909Z,21.81
2023-05-24T09:19:22.830Z,22.27
2023-05-24T09:22:10.969Z,21.93
2023-05-24T09:24:55.384Z,22.56
2023-05-24T09:27:25.361Z,21.71
2023-05-24T09:29:57.817Z,22.03
2023-05-24T09:32:26.890Z,21.86
2023-05-24T09:35:01.140Z,21.43
2023-05-24T09:41:13.908Z,21.42
2023-05-24T09:43:55.107Z,22.39
2023-05-24T09:46:25.694Z,21.60
2023-05-24T09:57:36.062Z,22.68
2023-05-24T10:00:18.685Z,22.64
2023-05-24T10:02:53.142Z,22.78
2023-05-24T10:05:23.415Z,22.73
2023-05-24T10:07:54.358Z,22.67
2023-05-24T10:13:09.183Z,23.12
2023-05-24T10:15:43.173Z,22.42
2023-05-24T10:18:14.331Z,21.97
2023-05-24T10:20:44.046Z,22.03
2023-05-24T10:23:21.585Z,22.77
2023-05-24T10:25:58.495Z,22.30
2023-05-24T10:28:30.978Z,22.55
2023-05-24T10:31:14.343Z,22.28
2023-05-24T10:33:49.914Z,22.44
2023-05-24T10:36:26.370Z,22.08
2023-05-24T10:38:56.715Z,22.37
2023-05-24T10:41:29.120Z,22.22
2023-05-24T10:44:08.625Z,22.30
2023-05-24T10:47:27.744Z,22.52
2023-05-24T10:50:00.044Z,23.00
2023-05-24T10:52:46.480Z,22.40
2023-05-24T10:55:16.735Z,22.05
2023-05-24T10:57:48.116Z,22.85
2023-05-24T11:03:15.162Z,22.60
2023-05-24T11:08:55.546Z,23.09
2023-05-24T11:11:35.822Z,23.76
2023-05-24T11:17:14.560Z,23.42
2023-05-24T11:20:00.604Z,23.38
2023-05-24T11:22:34.353Z,23.23
2023-05-24T11:25:14.738Z,23.55
2023-05-24T11:28:00.841Z,23.58
2023-05-24T11:30:36.964Z,23.84
2023-05-24T11:33:07.471Z,24.37
2023-05-24T11:35:56.921Z,24.21
2023-05-24T11:38:31.105Z,24.70
2023-05-24T11:41:18.412Z,24.60
2023-05-24T11:43:48.880Z,24.61
2023-05-24T11:49:07.171Z,25.44
2023-05-24T11:57:28.881Z,25.20
2023-05-24T11:59:59.132Z,25.43
2023-05-24T12:02:40.188Z,25.78
2023-05-24T12:05:26.777Z,25.13
2023-05-24T12:08:30.258Z,24.53
2023-05-24T12:11:02.158Z,24.53
2023-05-24T12:13:35.929Z,25.03
2023-05-24T12:16:12.806Z,24.44
2023-05-24T12:21:33.720Z,24.68
2023-05-24T12:24:21.971Z,24.98
2023-05-24T12:26:51.765Z,25.00
2023-05-24T12:29:24.146Z,24.67
2023-05-24T12:31:54.124Z,24.96
2023-05-24T12:34:42.558Z,25.12
2023-05-24T12:37:37.847Z,25.31
2023-05-24T12:40:28.597Z,25.69
2023-05-24T12:43:00.449Z,25.71
2023-05-24T12:48:20.982Z,25.17
2023-05-24T12:50:51.587Z,25.10
2023-05-24T12:53:25.109Z,25.13
2023-05-24T12:56:12.769Z,26.04
2023-05-24T12:58:43.643Z,25.96
2023-05-24T13:09:44.302Z,26.62
2023-05-24T13:12:30.868Z,26.89
2023-05-24T13:17:48.905Z,26.72
2023-05-24T13:23:23.097Z,26.96
2023-05-24T13:25:52.872Z,27.58
2023-05-24T13:28:25.674Z,26.63
2023-05-24T13:30:55.140Z,27.03
2023-05-24T13:33:26.697Z,27.94
2023-05-24T13:35:58.131Z,28.02
2023-05-24T13:38:41.358Z,27.46
2023-05-24T13:41:17.756Z,28.45
2023-05-24T14:10:54.281Z,30.59
2023-05-24T14:14:20.773Z,29.79
2023-05-24T14:16:22.331Z,29.87
2023-05-24T14:18:51.826Z,29.25
2023-05-24T14:21:23.809Z,28.27
2023-05-24T14:23:53.340Z,28.36
2023-05-24T14:26:24.228Z,27.85
2023-05-24T14:28:56.243Z,28.58
2023-05-24T14:31:26.188Z,29.42
2023-05-24T14:33:55.375Z,30.16
2023-05-24T14:36:39.781Z,29.70
2023-05-24T14:39:09.640Z,30.23
2023-05-24T14:41:40.861Z,30.42
2023-05-24T14:44:13.097Z,30.06
2023-05-24T14:46:47.572Z,30.30
2023-05-24T14:49:32.554Z,29.86
2023-05-24T14:52:06.730Z,28.63
2023-05-24T14:54:40.349Z,28.51
2023-05-24T14:57:10.833Z,28.49
2023-05-24T14:59:40.244Z,28.97
2023-05-24T15:02:23.066Z,29.09
2023-05-24T15:04:52.032Z,29.70
2023-05-24T15:07:23.830Z,30.20
2023-05-24T15:13:03.365Z,30.87
2023-05-24T15:25:03.353Z,30.59
2023-05-24T15:27:32.643Z,31.06
2023-05-24T15:33:04.348Z,31.50
2023-05-24T15:35:58.360Z,31.23
2023-05-24T15:49:18.210Z,30.38
2023-05-24T15:52:03.442Z,29.23
2023-05-24T15:54:34.053Z,30.52
2023-05-24T15:57:05.486Z,30.87
2023-05-24T15:59:39.679Z,30.95
2023-05-24T16:02:14.183Z,30.91
2023-05-24T16:04:59.507Z,31.53
2023-05-24T16:10:28.115Z,31.22
2023-05-24T16:13:19.549Z,30.40
2023-05-24T16:15:55.902Z,29.85
2023-05-24T16:18:27.863Z,29.50
2023-05-24T16:20:59.916Z,30.91
2023-05-24T16:23:32.818Z,30.69
2023-05-24T16:26:03.267Z,30.26
2023-05-24T16:28:45.154Z,30.73
2023-05-24T16:31:23.802Z,30.45
2023-05-24T16:33:52.678Z,29.75
2023-05-24T16:36:24.925Z,30.43
2023-05-24T16:41:51.145Z,30.22
2023-05-24T16:56:06.718Z,26.85
2023-05-24T17:01:33.532Z,25.84
2023-05-24T17:04:04.709Z,24.56
2023-05-24T17:06:34.717Z,24.47
2023-05-24T17:09:07.999Z,24.35
2023-05-24T17:11:43.785Z,24.28
2023-05-24T17:14:16.412Z,23.35
2023-05-24T17:16:52.490Z,22.96
2023-05-24T17:19:26.562Z,23.00
2023-05-24T17:21:56.512Z,22.40
2023-05-24T17:24:30.963Z,22.29
2023-05-24T17:27:05.461Z,21.94
2023-05-24T17:29:36.389Z,21.54
2023-05-24T17:32:05.478Z,21.50
2023-05-24T17:34:35.594Z,20.98
2023-05-24T17:37:05.756Z,21.53
2023-05-24T17:39:39.971Z,20.99
2023-05-24T17:42:09.846Z,20.70
2023-05-24T17:44:40.477Z,20.42
2023-05-24T17:47:10.097Z,20.38
2023-05-24T17:52:30.586Z,19.77
2023-05-24T17:55:09.420Z,19.93
2023-05-24T17:57:38.432Z,19.94
2023-05-24T18:00:10.070Z,19.60
2023-05-24T18:02:40.231Z,19.64
2023-05-24T18:08:09.004Z,19.72
2023-05-24T18:10:40.134Z,19.56
2023-05-24T18:13:11.599Z,19.49
2023-05-24T18:15:42.272Z,19.29
2023-05-24T18:18:12.771Z,18.99
2023-05-24T18:20:42.015Z,19.04
2023-05-24T18:23:15.131Z,19.08
2023-05-24T18:25:47.488Z,19.03
2023-05-24T18:28:17.389Z,19.08
2023-05-24T18:30:46.423Z,18.94
2023-05-24T18:33:16.572Z,18.66
2023-05-24T18:35:46.763Z,18.46
2023-05-24T18:38:19.764Z,18.55
2023-05-24T18:40:51.397Z,18.38
2023-05-24T18:43:20.875Z,18.36
2023-05-24T18:45:49.998Z,18.38
2023-05-24T18:48:19.817Z,18.14
2023-05-24T18:51:04.190Z,18.32
2023-05-24T18:53:44.053Z,18.25
2023-05-24T18:56:16.690Z,17.96
2023-05-24T18:58:50.092Z,18.08
2023-05-24T19:01:19.888Z,17.80
2023-05-24T19:03:50.510Z,17.68
2023-05-24T19:06:19.865Z,17.80
2023-05-24T19:08:55.929Z,17.66
2023-05-24T19:12:11.856Z,17.81
2023-05-24T19:14:57.318Z,17.71
2023-05-24T19:26:19.848Z,17.64
2023-05-24T19:28:54.592Z,17.57
2023-05-24T19:31:27.577Z,17.51
2023-05-24T19:34:02.392Z,17.47
2023-05-24T19:36:33.324Z,17.41
2023-05-24T19:39:04.001Z,17.31
2023-05-24T19:41:41.624Z,17.18
2023-05-24T19:44:18.825Z,17.15
2023-05-24T19:46:56.812Z,17.11
2023-05-24T19:49:26.331Z,16.95
2023-05-24T19:51:57.434Z,17.08
2023-05-24T19:54:26.788Z,17.02
2023-05-24T19:57:05.497Z,16.84
2023-05-24T19:59:35.436Z,16.85
2023-05-24T20:02:21.301Z,16.93
2023-05-24T20:07:33.313Z,16.90
2023-05-24T20:10:02.554Z,16.92
2023-05-24T20:12:34.633Z,16.93
2023-05-24T20:15:05.616Z,16.83
2023-05-24T20:18:00.298Z,16.61
2023-05-24T20:20:29.747Z,16.51
2023-05-24T20:23:13.887Z,16.63
2023-05-24T20:28:34.576Z,16.64
2023-05-24T20:31:12.912Z,16.80
2023-05-24T20:33:46.838Z,16.50
2023-05-24T20:36:20.491Z,16.48
2023-05-24T20:38:51.538Z,16.61
2023-05-24T20:41:23.126Z,16.73
2023-05-24T20:43:52.807Z,16.68
2023-05-24T20:46:22.873Z,16.61
2023-05-24T20:49:08.195Z,16.48
2023-05-24T20:51:40.385Z,16.52
2023-05-24T20:54:18.754Z,16.43
2023-05-24T20:56:54.130Z,16.63
2023-05-24T20:59:32.314Z,16.35
2023-05-24T21:02:06.651Z,16.79
2023-05-24T21:13:40.018Z,16.78
2023-05-24T21:16:47.469Z,16.78
2023-05-24T21:23:31.208Z,16.82
2023-05-24T21:26:24.301Z,17.00
2023-05-24T21:32:14.037Z,16.90
2023-05-24T21:35:07.239Z,16.82
2023-05-24T21:37:51.167Z,17.12
2023-05-24T21:40:37.494Z,17.14
2023-05-24T21:46:38.001Z,17.04
2023-05-24T21:49:13.810Z,16.93
2023-05-24T21:52:38.496Z,16.99
2023-05-24T21:55:43.379Z,17.02
2023-05-24T22:01:10.881Z,17.17
2023-05-24T22:06:55.530Z,16.58
2023-05-24T22:09:52.203Z,16.77
2023-05-24T22:12:28.517Z,16.72
2023-05-24T22:15:15.184Z,16.77
2023-05-24T22:17:51.036Z,16.56
2023-05-24T22:20:29.013Z,16.02
2023-05-24T22:23:01.148Z,16.50
2023-05-24T22:25:35.713Z,16.51
2023-05-24T22:28:05.616Z,16.27
2023-05-24T22:30:37.226Z,16.15
2023-05-24T22:33:08.221Z,16.27
2023-05-24T22:35:39.473Z,16.18
2023-05-24T22:38:09.075Z,15.81
2023-05-24T22:40:42.370Z,15.82
2023-05-24T22:43:18.758Z,16.05
2023-05-24T22:45:49.923Z,16.03
2023-05-24T22:48:22.495Z,16.03
2023-05-24T22:51:00.901Z,15.95
2023-05-24T22:53:31.493Z,15.84
2023-05-24T22:56:04.927Z,15.81
2023-05-24T22:58:35.330Z,15.65
2023-05-24T23:01:05.491Z,15.56
2023-05-24T23:03:40.296Z,15.55
2023-05-24T23:06:12.341Z,15.47
2023-05-24T23:08:44.390Z,15.40
2023-05-24T23:11:32.890Z,15.27
2023-05-24T23:14:04.378Z,15.31
2023-05-24T23:16:35.051Z,15.15
2023-05-24T23:22:07.721Z,15.00
2023-05-24T23:24:38.244Z,15.10
2023-05-24T23:27:12.610Z,14.97
2023-05-24T23:29:42.678Z,14.99
2023-05-24T23:32:14.454Z,14.93
2023-05-24T23:34:44.072Z,14.90
2023-05-24T23:37:14.671Z,14.88
2023-05-24T23:39:44.689Z,14.92
2023-05-24T23:42:21.797Z,14.85
2023-05-24T23:45:00.685Z,14.73
2023-05-24T23:47:30.665Z,14.84
2023-05-24T23:49:59.808Z,14.69
2023-05-24T23:52:29.671Z,14.87
2023-05-24T23:54:59.540Z,14.78
2023-05-24T23:57:35.099Z,14.69
